Time;durP1;ratioP1;P1;durP2;ratioP2;P2;SDS_P1;SDS_P2;PMS_P1;PMS_P2;Temp;Humidity;BMP_temperature;BMP_pressure;BME280_temperature;BME280_humidity;BME280_pressure;Samples;Min_cycle;Max_cycle;Signal;HPM_P1;HPM_P2
2023/01/28 00:00:37;;;;;;;0.60;0.60;;;;;;;1.93;100.00;99719.94;5103707;28;20693;-76
2023/01/28 00:03:06;;;;;;;0.70;0.70;;;;;;;1.95;100.00;99727.69;5091709;28;20605;-75
2023/01/28 00:05:32;;;;;;;2.27;2.07;;;;;;;1.84;100.00;99722.13;5090700;28;20228;-76
2023/01/28 00:07:59;;;;;;;0.90;0.90;;;;;;;1.79;100.00;99723.59;5090545;28;20198;-76
2023/01/28 00:10:26;;;;;;;0.90;0.90;;;;;;;1.72;100.00;99716.47;5091709;28;20205;-76
2023/01/28 00:12:53;;;;;;;0.70;0.70;;;;;;;1.74;100.00;99727.63;5091001;28;20214;-76
2023/01/28 00:15:19;;;;;;;0.60;0.60;;;;;;;1.65;100.00;99693.13;5093946;28;20267;-75
2023/01/28 00:17:46;;;;;;;0.60;0.60;;;;;;;1.85;100.00;99717.88;5096003;28;20190;-77
2023/01/28 00:20:15;;;;;;;0.70;0.70;;;;;;;1.99;100.00;99722.78;5113951;28;20213;-77
2023/01/28 00:22:46;;;;;;;0.70;0.70;;;;;;;2.02;100.00;99733.94;5112690;28;20217;-77
2023/01/28 00:25:13;;;;;;;0.60;0.60;;;;;;;1.47;100.00;99637.88;5115036;28;20262;-76
2023/01/28 00:27:40;;;;;;;0.60;0.60;;;;;;;2.10;100.00;99733.47;5114113;28;20660;-77
2023/01/28 00:30:08;;;;;;;0.60;0.60;;;;;;;2.19;100.00;99733.84;5114634;28;20202;-77
2023/01/28 00:32:35;;;;;;;0.70;0.70;;;;;;;2.17;100.00;99738.03;5090915;28;20206;-78
2023/01/28 00:35:02;;;;;;;0.70;0.70;;;;;;;2.10;100.00;99720.69;5094784;28;20367;-76
2023/01/28 00:37:30;;;;;;;0.50;0.50;;;;;;;2.05;100.00;99719.59;5095391;28;20645;-76
2023/01/28 00:39:57;;;;;;;0.70;0.70;;;;;;;2.00;100.00;99746.63;5094696;28;20206;-76
2023/01/28 00:42:23;;;;;;;0.70;0.70;;;;;;;2.06;100.00;99746.91;5111094;28;20225;-75
2023/01/28 00:44:50;;;;;;;0.60;0.60;;;;;;;1.83;100.00;99734.81;5113184;28;20251;-76
2023/01/28 00:47:17;;;;;;;0.60;0.60;;;;;;;1.86;100.00;99733.25;5094416;28;20275;-76
2023/01/28 00:49:44;;;;;;;0.80;0.80;;;;;;;1.81;100.00;99739.88;5095344;28;20778;-76
2023/01/28 00:52:10;;;;;;;0.80;0.80;;;;;;;1.97;100.00;99756.72;5103810;28;20206;-76
2023/01/28 00:54:38;;;;;;;0.80;0.80;;;;;;;2.14;100.00;99755.78;5041957;28;20201;-78
2023/01/28 00:57:05;;;;;;;0.87;0.87;;;;;;;2.02;100.00;99739.94;5097073;28;20627;-77
2023/01/28 00:59:32;;;;;;;0.80;0.80;;;;;;;2.10;100.00;99760.72;5113934;28;20252;-77
2023/01/28 01:02:11;;;;;;;0.90;0.90;;;;;;;2.19;100.00;99754.28;5100485;28;20217;-77
2023/01/28 01:04:37;;;;;;;0.70;0.70;;;;;;;2.10;100.00;99759.03;5093565;28;20247;-76
2023/01/28 01:07:04;;;;;;;0.70;0.70;;;;;;;2.09;100.00;99759.84;5058228;28;20202;-77
2023/01/28 01:09:31;;;;;;;0.80;0.80;;;;;;;2.00;100.00;99764.53;5111891;28;20209;-77
2023/01/28 01:11:59;;;;;;;1.73;1.63;;;;;;;2.07;100.00;99758.88;5100888;28;20194;-75
2023/01/28 01:14:26;;;;;;;0.70;0.70;;;;;;;1.99;100.00;99766.25;5094993;28;20205;-76
2023/01/28 01:16:53;;;;;;;0.73;0.73;;;;;;;1.94;100.00;99756.59;5093691;28;20198;-76
2023/01/28 01:19:19;;;;;;;0.70;0.70;;;;;;;1.80;100.00;99752.56;5050443;28;20212;-74
2023/01/28 01:21:49;;;;;;;0.63;0.63;;;;;;;1.91;100.00;99756.47;5082908;28;20233;-76
2023/01/28 01:24:16;;;;;;;0.67;0.67;;;;;;;1.92;100.00;99761.66;5100779;28;20186;-75
2023/01/28 01:26:43;;;;;;;0.90;0.90;;;;;;;1.87;100.00;99762.25;5040741;28;20230;-76
2023/01/28 01:29:11;;;;;;;0.80;0.80;;;;;;;1.88;100.00;99741.88;5095181;28;20205;-76
2023/01/28 01:31:38;;;;;;;0.73;0.73;;;;;;;2.04;100.00;99761.31;5093319;28;20194;-76
2023/01/28 01:34:05;;;;;;;0.50;0.50;;;;;;;2.02;100.00;99745.03;5093896;28;20218;-76
2023/01/28 01:36:31;;;;;;;0.70;0.70;;;;;;;2.13;100.00;99766.84;5093584;28;20205;-77
2023/01/28 01:38:58;;;;;;;0.50;0.50;;;;;;;2.17;100.00;99768.72;5107967;28;20202;-76
2023/01/28 01:41:28;;;;;;;0.60;0.60;;;;;;;2.30;100.00;99772.66;5112556;28;20209;-76
2023/01/28 01:43:57;;;;;;;0.70;0.70;;;;;;;2.12;100.00;99742.06;5094441;28;20281;-76
2023/01/28 01:46:33;;;;;;;0.70;0.70;;;;;;;2.30;100.00;99782.88;5093299;28;20282;-76
2023/01/28 01:49:06;;;;;;;0.60;0.60;;;;;;;2.09;100.00;99762.38;5097678;28;20277;-76
2023/01/28 01:51:35;;;;;;;0.70;0.70;;;;;;;1.98;100.00;99748.25;5105127;28;20212;-75
2023/01/28 01:54:04;;;;;;;0.70;0.70;;;;;;;2.14;100.00;99778.78;5113218;28;20258;-76
2023/01/28 01:56:35;;;;;;;0.70;0.70;;;;;;;2.11;100.00;99778.66;5042614;28;20201;-75
2023/01/28 01:59:03;;;;;;;0.60;0.60;;;;;;;2.04;100.00;99778.31;5106433;28;20632;-76
2023/01/28 02:01:32;;;;;;;0.50;0.50;;;;;;;1.93;100.00;99767.63;5112248;28;20202;-71
2023/01/28 02:04:05;;;;;;;0.70;0.70;;;;;;;1.83;100.00;99757.81;5092855;28;20247;-75
2023/01/28 02:06:34;;;;;;;2.57;2.47;;;;;;;2.07;100.00;99781.88;5092753;28;20209;-76
2023/01/28 02:09:02;;;;;;;0.83;0.83;;;;;;;1.96;100.00;99781.41;5108555;28;20204;-75
2023/01/28 02:11:32;;;;;;;1.43;1.37;;;;;;;1.83;100.00;99768.91;5112644;28;20352;-76
2023/01/28 02:14:03;;;;;;;0.70;0.70;;;;;;;1.96;100.00;99790.78;5097617;28;20206;-75
2023/01/28 02:16:32;;;;;;;0.60;0.60;;;;;;;2.06;100.00;99777.59;5092336;28;20578;-76
2023/01/28 02:18:59;;;;;;;0.80;0.80;;;;;;;2.04;100.00;99788.53;5072181;28;20206;-75
2023/01/28 02:21:51;;;;;;;0.70;0.70;;;;;;;2.20;100.00;99794.41;5101741;28;20205;-75
2023/01/28 02:24:43;;;;;;;0.70;0.70;;;;;;;2.31;100.00;99800.88;5093528;28;20203;-75
2023/01/28 02:27:27;;;;;;;0.70;0.70;;;;;;;2.23;100.00;99802.22;5092501;28;20190;-76
2023/01/28 02:30:01;;;;;;;0.63;0.63;;;;;;;2.20;100.00;99802.09;5092286;28;20206;-74
2023/01/28 02:32:33;;;;;;;0.80;0.80;;;;;;;1.94;100.00;99770.25;5092058;28;20198;-74
2023/01/28 02:35:07;;;;;;;0.40;0.40;;;;;;;2.18;100.00;99808.78;5094871;28;20672;-76
2023/01/28 02:37:38;;;;;;;0.80;0.80;;;;;;;2.16;100.00;99807.88;5111935;28;20228;-75
2023/01/28 02:40:10;;;;;;;0.60;0.60;;;;;;;2.17;100.00;99793.41;5110745;28;20236;-76
2023/01/28 02:42:39;;;;;;;0.70;0.70;;;;;;;2.34;100.00;99816.34;5042712;28;20218;-76
2023/01/28 02:45:19;;;;;;;0.70;0.70;;;;;;;2.44;100.00;99815.91;5099855;28;20225;-76
2023/01/28 02:47:58;;;;;;;0.70;0.70;;;;;;;2.34;100.00;99802.69;5102878;28;20194;-75
2023/01/28 02:50:35;;;;;;;0.80;0.80;;;;;;;2.51;100.00;99819.59;5095754;28;20201;-75
2023/01/28 02:56:14;;;;;;;0.63;0.63;;;;;;;2.60;100.00;99824.25;5091702;28;20248;-76
2023/01/28 02:58:46;;;;;;;0.60;0.60;;;;;;;2.58;100.00;99836.09;5107725;28;20201;-76
2023/01/28 03:01:22;;;;;;;0.60;0.60;;;;;;;2.62;100.00;99832.84;5091720;28;20283;-74
2023/01/28 03:03:58;;;;;;;0.60;0.60;;;;;;;2.61;100.00;99836.22;5100847;28;20224;-76
2023/01/28 03:06:28;;;;;;;0.57;0.57;;;;;;;2.61;100.00;99836.22;5112095;28;20204;-74
2023/01/28 03:36:54;;;;;;;0.60;0.60;;;;;;;2.82;100.00;99860.16;5103505;28;20212;-76
2023/01/28 03:39:25;;;;;;;0.70;0.70;;;;;;;2.69;100.00;99865.56;5113135;28;20198;-75
2023/01/28 03:42:00;;;;;;;1.07;1.07;;;;;;;2.80;100.00;99861.78;5094214;28;20197;-75
2023/01/28 03:47:12;;;;;;;0.70;0.70;;;;;;;2.75;100.00;99864.13;5091676;28;20213;-76
2023/01/28 03:49:41;;;;;;;0.70;0.70;;;;;;;2.85;100.00;99865.41;5104106;28;20680;-75
2023/01/28 03:52:08;;;;;;;0.67;0.67;;;;;;;2.83;100.00;99865.34;5091041;28;20206;-76
2023/01/28 03:54:35;;;;;;;0.53;0.53;;;;;;;2.78;100.00;99854.03;5091710;28;20189;-75
2023/01/28 03:57:02;;;;;;;0.63;0.63;;;;;;;2.85;100.00;99868.84;5109189;28;20225;-75
2023/01/28 03:59:29;;;;;;;0.77;0.77;;;;;;;2.69;100.00;99873.25;5110069;28;20228;-76
2023/01/28 04:01:56;;;;;;;0.70;0.70;;;;;;;2.68;100.00;99871.50;5097818;28;20216;-76
2023/01/28 04:04:23;;;;;;;0.50;0.50;;;;;;;2.68;100.00;99881.72;5108786;28;20669;-76
2023/01/28 04:06:53;;;;;;;1.07;1.07;;;;;;;2.78;100.00;99881.34;5090271;28;20209;-77
2023/01/28 04:09:20;;;;;;;0.70;0.70;;;;;;;2.78;100.00;99881.34;5068869;28;20205;-76
2023/01/28 04:11:47;;;;;;;0.60;0.60;;;;;;;2.76;100.00;99893.19;5089811;28;20221;-77
2023/01/28 04:14:14;;;;;;;0.60;0.60;;;;;;;2.58;100.00;99877.03;5090263;28;20205;-75
2023/01/28 04:16:41;;;;;;;1.07;1.07;;;;;;;2.68;100.00;99894.53;5090048;28;20289;-75
2023/01/28 04:19:07;;;;;;;0.50;0.50;;;;;;;2.51;100.00;99886.13;5100648;28;20197;-75
2023/01/28 04:21:34;;;;;;;0.60;0.60;;;;;;;2.54;100.00;99885.38;5109994;28;20202;-74
2023/01/28 04:24:02;;;;;;;0.40;0.40;;;;;;;2.54;100.00;99890.50;5097975;28;20229;-76
2023/01/28 04:26:29;;;;;;;0.60;0.60;;;;;;;2.56;100.00;99887.22;5059858;28;20705;-75
2023/01/28 04:28:56;;;;;;;0.73;0.73;;;;;;;2.48;100.00;99886.88;5096671;28;20202;-76
2023/01/28 04:31:23;;;;;;;0.60;0.60;;;;;;;2.45;100.00;99896.09;5100803;28;20585;-76
2023/01/28 04:33:50;;;;;;;1.10;1.10;;;;;;;2.39;100.00;99901.81;5100280;28;20221;-76
2023/01/28 04:36:17;;;;;;;0.70;0.70;;;;;;;2.34;100.00;99898.19;5100358;28;20679;-75
2023/01/28 04:38:44;;;;;;;0.60;0.60;;;;;;;2.30;100.00;99890.31;5099748;28;20198;-76
2023/01/28 04:41:12;;;;;;;0.80;0.80;;;;;;;2.23;100.00;99889.16;5099257;28;20186;-75
2023/01/28 04:43:39;;;;;;;0.50;0.50;;;;;;;2.25;100.00;99892.66;5099391;28;20225;-75
2023/01/28 04:46:06;;;;;;;0.60;0.60;;;;;;;2.34;100.00;99892.19;5046898;28;20187;-76
2023/01/28 04:48:35;;;;;;;0.60;0.60;;;;;;;2.20;100.00;99877.94;5099017;28;20230;-75
2023/01/28 04:51:02;;;;;;;0.60;0.60;;;;;;;2.19;100.00;99873.59;5098529;28;20194;-75
2023/01/28 04:53:29;;;;;;;0.60;0.60;;;;;;;2.35;100.00;99899.94;5099462;28;20876;-76
2023/01/28 04:55:55;;;;;;;0.77;0.77;;;;;;;2.34;100.00;99900.75;5100620;28;20599;-77
2023/01/28 04:58:24;;;;;;;0.70;0.70;;;;;;;2.47;100.00;99899.59;5101832;28;20302;-75
2023/01/28 05:00:55;;;;;;;0.80;0.80;;;;;;;2.39;100.00;99901.81;5090259;28;20585;-76
2023/01/28 05:03:22;;;;;;;0.70;0.70;;;;;;;2.39;100.00;99900.97;5093136;28;20312;-76
2023/01/28 05:05:49;;;;;;;0.60;0.60;;;;;;;2.29;100.00;99909.00;5093182;28;20207;-76
2023/01/28 05:08:16;;;;;;;0.80;0.80;;;;;;;2.33;100.00;99909.22;5093074;28;20198;-77
2023/01/28 05:10:43;;;;;;;0.70;0.70;;;;;;;2.30;100.00;99916.78;5093139;28;20269;-76
2023/01/28 05:13:10;;;;;;;0.80;0.80;;;;;;;2.25;100.00;99914.78;5092869;28;20210;-76
2023/01/28 05:15:38;;;;;;;0.43;0.43;;;;;;;2.18;100.00;99900.84;5093272;28;20206;-76
2023/01/28 05:18:05;;;;;;;0.67;0.67;;;;;;;2.31;100.00;99923.63;5092309;28;20617;-76
2023/01/28 05:20:32;;;;;;;0.90;0.90;;;;;;;2.33;100.00;99924.56;5092958;28;20206;-76
2023/01/28 05:22:59;;;;;;;0.60;0.60;;;;;;;2.18;100.00;99905.09;5092878;28;20224;-76
2023/01/28 05:25:26;;;;;;;0.90;0.90;;;;;;;2.08;100.00;99898.69;5041137;28;20258;-75
2023/01/28 05:27:53;;;;;;;0.60;0.60;;;;;;;2.16;100.00;99917.81;5092613;28;20202;-76
2023/01/28 05:30:20;;;;;;;0.70;0.70;;;;;;;1.99;100.00;99898.28;5041376;28;20205;-75
2023/01/28 05:32:49;;;;;;;0.70;0.70;;;;;;;2.17;100.00;99926.38;5092187;28;20255;-76
2023/01/28 05:35:16;;;;;;;0.70;0.70;;;;;;;2.06;100.00;99933.56;5094174;28;20768;-76
2023/01/28 05:37:43;;;;;;;0.83;0.83;;;;;;;1.92;100.00;99917.59;5060324;28;20201;-76
2023/01/28 05:40:11;;;;;;;0.60;0.60;;;;;;;2.06;100.00;99931.00;5101760;28;20202;-77
2023/01/28 05:42:37;;;;;;;0.80;0.80;;;;;;;2.01;100.00;99932.47;5092921;28;20287;-77
2023/01/28 05:45:05;;;;;;;0.93;0.93;;;;;;;2.00;100.00;99941.81;5107005;28;20205;-74
2023/01/28 05:47:33;;;;;;;0.63;0.63;;;;;;;1.91;100.00;99935.41;5112956;28;20201;-76
2023/01/28 05:50:01;;;;;;;0.40;0.40;;;;;;;1.95;100.00;99943.28;5101389;28;20198;-75
2023/01/28 05:52:28;;;;;;;0.70;0.70;;;;;;;2.00;100.00;99946.03;5092528;28;20220;-75
2023/01/28 05:54:54;;;;;;;0.67;0.67;;;;;;;2.04;100.00;99950.50;5111066;28;20547;-75
2023/01/28 05:57:21;;;;;;;0.80;0.80;;;;;;;1.98;100.00;99956.22;5101379;28;20193;-74
2023/01/28 05:59:48;;;;;;;0.60;0.60;;;;;;;2.02;100.00;99953.78;5101731;28;20255;-78
2023/01/28 06:02:15;;;;;;;0.73;0.73;;;;;;;2.13;100.00;99963.72;5099866;28;20679;-76
2023/01/28 06:04:41;;;;;;;0.80;0.80;;;;;;;2.02;100.00;99949.56;5102938;28;20217;-75
2023/01/28 06:07:12;;;;;;;1.80;1.80;;;;;;;2.04;100.00;99964.97;5101874;28;20601;-76
2023/01/28 06:09:39;;;;;;;0.70;0.70;;;;;;;2.14;100.00;99973.13;5101553;28;20194;-76
2023/01/28 06:12:06;;;;;;;0.80;0.80;;;;;;;2.35;100.00;99934.88;5101539;28;20220;-76
2023/01/28 06:14:33;;;;;;;2.33;1.43;;;;;;;2.38;100.00;99958.03;5051613;28;20684;-76
2023/01/28 06:16:59;;;;;;;0.60;0.60;;;;;;;2.37;100.00;99966.50;5104974;28;20220;-78
2023/01/28 06:19:27;;;;;;;0.70;0.70;;;;;;;2.26;100.00;99970.25;5112374;28;20642;-75
2023/01/28 06:21:53;;;;;;;0.70;0.70;;;;;;;2.20;100.00;99965.75;5113029;28;20224;-77
2023/01/28 06:24:22;;;;;;;0.80;0.80;;;;;;;2.24;100.00;99972.78;5100025;28;20626;-77
2023/01/28 06:26:48;;;;;;;0.70;0.70;;;;;;;2.23;100.00;99980.34;5094780;28;20573;-76
2023/01/28 06:29:15;;;;;;;1.13;1.13;;;;;;;2.03;100.00;99976.88;5091069;28;20221;-76
2023/01/28 06:31:42;;;;;;;5.30;2.90;;;;;;;2.11;100.00;99980.66;5099871;28;20305;-74
2023/01/28 06:34:09;;;;;;;1.27;1.27;;;;;;;2.27;100.00;99979.69;5098058;28;20294;-76
2023/01/28 06:36:37;;;;;;;0.40;0.40;;;;;;;2.19;100.00;99984.44;5102057;28;20270;-76
2023/01/28 06:39:04;;;;;;;1.13;1.13;;;;;;;2.24;100.00;99988.13;5098572;28;20288;-75
2023/01/28 06:41:33;;;;;;;0.60;0.60;;;;;;;2.22;100.00;99994.81;5102697;28;20221;-75
2023/01/28 06:44:00;;;;;;;0.53;0.53;;;;;;;2.27;100.00;99988.25;5093198;28;20228;-74
2023/01/28 06:46:27;;;;;;;1.20;1.20;;;;;;;2.25;100.00;99994.97;5095537;28;20212;-77
2023/01/28 06:48:54;;;;;;;1.00;1.00;;;;;;;2.39;100.00;99998.19;5107703;28;20201;-76
2023/01/28 06:51:20;;;;;;;0.77;0.77;;;;;;;2.58;100.00;99989.63;5103045;28;20202;-77
2023/01/28 06:53:47;;;;;;;0.70;0.70;;;;;;;2.59;100.00;99991.38;5107611;28;20217;-77
2023/01/28 06:56:14;;;;;;;0.60;0.60;;;;;;;2.56;100.00;99969.09;5110425;28;20212;-79
2023/01/28 06:58:42;;;;;;;0.50;0.50;;;;;;;2.67;100.00;99992.63;5110182;28;20306;-78
2023/01/28 07:01:09;;;;;;;0.80;0.80;;;;;;;2.34;100.00;100000.50;5106163;28;20209;-74
2023/01/28 07:03:36;;;;;;;3.03;2.93;;;;;;;2.29;100.00;99976.41;5042605;28;20218;-78
2023/01/28 07:06:03;;;;;;;0.50;0.50;;;;;;;2.33;100.00;99991.06;5096524;28;20217;-76
2023/01/28 07:08:30;;;;;;;0.83;0.83;;;;;;;2.53;100.00;100011.59;5095834;28;20210;-76
2023/01/28 07:10:57;;;;;;;0.50;0.50;;;;;;;2.42;100.00;100017.09;5091600;28;20225;-75
2023/01/28 07:13:24;;;;;;;0.50;0.50;;;;;;;2.32;100.00;100017.44;5094684;28;20206;-74
2023/01/28 07:15:52;;;;;;;0.60;0.60;;;;;;;2.30;100.00;100020.75;5091248;28;20588;-77
2023/01/28 07:18:19;;;;;;;2.87;2.57;;;;;;;2.35;100.00;100025.31;5051227;28;20262;-74
2023/01/28 07:20:45;;;;;;;0.60;0.60;;;;;;;2.50;100.00;100022.53;5070341;28;20198;-71
2023/01/28 07:23:12;;;;;;;0.30;0.30;;;;;;;2.43;100.00;100034.19;5067857;28;20689;-75
2023/01/28 07:25:39;;;;;;;0.60;0.60;;;;;;;2.32;100.00;100037.91;5089360;28;20210;-76
2023/01/28 07:28:06;;;;;;;0.60;0.60;;;;;;;2.43;100.00;100040.97;5090196;28;20225;-72
2023/01/28 07:30:33;;;;;;;0.60;0.60;;;;;;;2.29;100.00;100035.22;5091858;28;20224;-75
2023/01/28 07:33:01;;;;;;;0.60;0.60;;;;;;;2.29;100.00;100045.44;5107762;28;20193;-74
2023/01/28 07:35:28;;;;;;;1.00;1.00;;;;;;;2.12;100.00;100018.22;5108708;28;20221;-72
2023/01/28 07:37:56;;;;;;;0.73;0.73;;;;;;;2.21;100.00;100045.91;5102654;28;20210;-76
2023/01/28 07:40:24;;;;;;;0.53;0.53;;;;;;;2.27;100.00;100046.19;5106825;28;20205;-76
2023/01/28 07:42:51;;;;;;;0.70;0.70;;;;;;;2.20;100.00;100049.28;5093336;28;20222;-73
2023/01/28 07:45:18;;;;;;;1.20;1.20;;;;;;;2.36;100.00;100034.69;5090131;28;20306;-78
2023/01/28 07:47:45;;;;;;;0.60;0.60;;;;;;;2.42;100.00;100014.53;5099465;28;20202;-79
2023/01/28 07:50:15;;;;;;;0.50;0.50;;;;;;;2.58;100.00;100035.69;5091007;28;20221;-76
2023/01/28 07:52:44;;;;;;;1.23;1.23;;;;;;;2.29;100.00;100034.34;5098619;28;20206;-73
2023/01/28 07:55:14;;;;;;;0.70;0.70;;;;;;;2.63;100.00;100039.34;5091116;28;20267;-80
2023/01/28 07:57:49;;;;;;;0.50;0.50;;;;;;;2.63;100.00;100024.00;5100958;28;20196;-77
2023/01/28 08:00:16;;;;;;;0.60;0.60;;;;;;;2.72;100.00;100047.41;5039183;28;20225;-76
2023/01/28 08:02:46;;;;;;;0.60;0.60;;;;;;;2.71;100.00;100051.66;5102806;28;20198;-77
2023/01/28 08:05:16;;;;;;;1.40;1.27;;;;;;;2.84;100.00;100050.53;5095504;28;20221;-75
2023/01/28 08:07:43;;;;;;;0.50;0.50;;;;;;;2.69;100.00;100057.53;5092397;28;20249;-77
2023/01/28 08:10:11;;;;;;;0.50;0.50;;;;;;;2.73;100.00;100056.88;5053970;28;20665;-73
2023/01/28 08:12:38;;;;;;;0.80;0.80;;;;;;;2.54;100.00;100049.13;5093033;28;20225;-74
2023/01/28 08:15:06;;;;;;;0.80;0.80;;;;;;;2.84;100.00;100065.91;5090260;28;20198;-74
2023/01/28 08:17:33;;;;;;;0.70;0.70;;;;;;;2.79;100.00;100058.00;5049811;28;20202;-79
2023/01/28 08:19:59;;;;;;;0.87;0.87;;;;;;;2.87;100.00;100069.47;5058044;28;20213;-77
2023/01/28 08:22:28;;;;;;;0.60;0.60;;;;;;;3.15;100.00;100042.53;5092743;28;20194;-77
2023/01/28 08:24:55;;;;;;;0.80;0.80;;;;;;;3.14;100.00;100066.41;5099573;28;20278;-77
2023/01/28 08:27:22;;;;;;;0.80;0.80;;;;;;;3.03;100.00;100042.88;5110816;28;20262;-78
2023/01/28 08:29:49;;;;;;;0.70;0.70;;;;;;;3.35;100.00;100075.88;5110998;28;20208;-75
2023/01/28 08:32:16;;;;;;;0.60;0.60;;;;;;;3.28;100.00;100060.19;5106232;28;20548;-78
2023/01/28 08:34:42;;;;;;;0.60;0.60;;;;;;;3.46;100.00;100081.50;5110716;28;20728;-77
2023/01/28 08:37:09;;;;;;;0.67;0.67;;;;;;;3.53;100.00;100086.06;5054947;28;20656;-78
2023/01/28 08:39:37;;;;;;;0.63;0.63;;;;;;;3.84;100.00;100052.31;5094044;28;20684;-78
2023/01/28 08:42:05;;;;;;;0.70;0.70;;;;;;;3.90;100.00;100073.06;5104481;28;20197;-74
2023/01/28 08:44:32;;;;;;;1.00;1.00;;;;;;;4.02;100.00;100076.16;5114119;28;20232;-75
2023/01/28 08:46:59;;;;;;;0.70;0.70;;;;;;;4.32;100.00;100074.81;5114486;28;20221;-73
2023/01/28 08:49:26;;;;;;;0.50;0.50;;;;;;;4.43;100.00;100106.91;5114306;28;20209;-75
2023/01/28 08:51:54;;;;;;;1.13;1.13;;;;;;;4.56;100.00;100107.41;5114614;28;20204;-75
2023/01/28 08:54:21;;;;;;;3.80;1.73;;;;;;;4.47;100.00;100124.19;5114320;28;20277;-78
2023/01/28 08:56:50;;;;;;;0.60;0.60;;;;;;;4.46;100.00;100119.84;5114501;28;20193;-75
2023/01/28 08:59:17;;;;;;;0.60;0.60;;;;;;;4.42;100.00;100119.69;5114161;28;20641;-76
2023/01/28 09:01:44;;;;;;;0.57;0.57;;;;;;;4.58;100.00;100123.72;5114205;28;20198;-77
2023/01/28 09:04:11;;;;;;;1.10;1.10;;;;;;;4.24;100.00;100129.22;5113992;28;20707;-75
2023/01/28 09:06:38;;;;;;;0.57;0.57;;;;;;;4.25;100.00;100121.56;5062191;28;20307;-77
2023/01/28 09:09:04;;;;;;;0.87;0.87;;;;;;;4.29;100.00;100118.31;5114103;28;20208;-74
2023/01/28 09:11:31;;;;;;;0.60;0.60;;;;;;;4.41;100.00;100115.38;5113998;28;20555;-77
2023/01/28 09:14:00;;;;;;;0.77;0.77;;;;;;;4.52;100.00;100121.81;5078111;28;20185;-74
2023/01/28 09:16:26;;;;;;;0.93;0.93;;;;;;;4.43;100.00;100100.88;5113744;28;20204;-75
2023/01/28 09:18:54;;;;;;;0.50;0.50;;;;;;;4.13;100.00;100105.69;5077990;28;20208;-77
2023/01/28 09:21:21;;;;;;;1.53;1.43;;;;;;;4.81;100.00;100115.22;5113710;28;20602;-75
2023/01/28 09:23:48;;;;;;;2.10;1.23;;;;;;;5.09;100.00;100107.75;5113706;28;20712;-76
2023/01/28 09:26:15;;;;;;;1.37;1.37;;;;;;;5.75;100.00;100082.66;5113709;28;20193;-77
2023/01/28 09:28:41;;;;;;;1.00;1.00;;;;;;;5.05;100.00;100126.44;5113655;28;20193;-76
2023/01/28 09:31:11;;;;;;;0.80;0.80;;;;;;;5.20;100.00;100096.16;5113179;28;20193;-77
2023/01/28 09:33:39;;;;;;;0.50;0.50;;;;;;;5.43;100.00;100120.97;5113333;28;20284;-77
2023/01/28 09:36:08;;;;;;;0.70;0.70;;;;;;;5.26;100.00;100116.94;5077541;28;20526;-78
2023/01/28 09:38:35;;;;;;;0.60;0.60;;;;;;;5.55;100.00;100119.69;5113480;28;20690;-76
2023/01/28 09:41:15;;;;;;;0.60;0.60;;;;;;;5.69;100.00;100128.75;5113452;28;20293;-74
2023/01/28 09:43:56;;;;;;;0.70;0.70;;;;;;;5.64;100.00;100135.41;5113414;28;20205;-78
2023/01/28 09:46:32;;;;;;;0.50;0.50;;;;;;;5.81;100.00;100145.50;5113532;28;20224;-77
2023/01/28 09:49:01;;;;;;;0.77;0.77;;;;;;;5.96;100.00;100140.00;5096202;28;20231;-76
2023/01/28 09:51:34;;;;;;;0.60;0.60;;;;;;;6.35;100.00;100143.06;5103955;28;20205;-77
2023/01/28 09:54:05;;;;;;;0.60;0.60;;;;;;;6.44;100.00;100090.16;5095312;28;20597;-77
2023/01/28 09:56:39;;;;;;;0.60;0.60;;;;;;;6.85;100.00;100139.47;5100544;28;20202;-75
2023/01/28 09:59:17;;;;;;;0.57;0.57;;;;;;;7.01;100.00;100131.41;5112499;28;20209;-74
2023/01/28 10:01:52;;;;;;;0.83;0.83;;;;;;;7.15;100.00;100155.00;5099960;28;20332;-74
2023/01/28 10:04:32;;;;;;;0.60;0.60;;;;;;;7.20;100.00;100149.16;5093129;28;20220;-75
2023/01/28 10:07:14;;;;;;;0.87;0.87;;;;;;;7.27;100.00;100160.53;5046079;28;20206;-74
2023/01/28 10:09:48;;;;;;;1.00;1.00;;;;;;;6.81;100.00;100164.28;5095371;28;20209;-74
2023/01/28 10:12:39;;;;;;;0.57;0.57;;;;;;;6.90;100.00;100154.28;5097518;28;20211;-74
2023/01/28 10:15:28;;;;;;;0.50;0.50;;;;;;;6.76;100.00;100167.56;5100203;28;20206;-73
2023/01/28 10:18:01;;;;;;;0.70;0.70;;;;;;;6.25;100.00;100165.03;5074316;28;20201;-76
2023/01/28 10:20:32;;;;;;;0.70;0.70;;;;;;;6.80;100.00;100156.53;5108280;28;20208;-76
2023/01/28 10:23:05;;;;;;;12.00;3.13;;;;;;;7.03;100.00;100162.38;5076312;28;20202;-75
2023/01/28 10:25:32;;;;;;;0.70;0.70;;;;;;;7.17;100.00;100167.09;5102217;28;20241;-72
2023/01/28 10:28:01;;;;;;;0.50;0.50;;;;;;;7.54;100.00;100170.75;5090990;28;20627;-78
2023/01/28 10:30:31;;;;;;;0.70;0.70;;;;;;;7.76;100.00;100153.34;5091776;28;20198;-75
2023/01/28 10:33:04;;;;;;;1.43;1.43;;;;;;;8.07;100.00;100175.69;5090606;28;20213;-73
2023/01/28 10:35:37;;;;;;;0.70;0.70;;;;;;;7.65;100.00;100144.44;5093593;28;20254;-73
2023/01/28 10:38:08;;;;;;;0.73;0.73;;;;;;;7.56;100.00;100159.66;5091103;28;20202;-75
2023/01/28 10:40:35;;;;;;;3.10;1.50;;;;;;;7.15;100.00;100157.59;5090541;28;20279;-75
2023/01/28 10:43:02;;;;;;;3.23;2.60;;;;;;;7.19;100.00;100160.31;5092504;28;20308;-76
2023/01/28 10:45:34;;;;;;;0.80;0.80;;;;;;;7.23;100.00;100164.72;5091175;28;20233;-77
2023/01/28 10:48:08;;;;;;;0.70;0.70;;;;;;;7.60;100.00;100160.63;5092226;28;20197;-74
2023/01/28 10:50:35;;;;;;;0.60;0.60;;;;;;;7.66;100.00;100160.78;5097314;28;20216;-74
2023/01/28 10:53:04;;;;;;;0.47;0.47;;;;;;;7.97;100.00;100165.94;5091413;28;20209;-73
2023/01/28 10:55:38;;;;;;;0.53;0.53;;;;;;;8.11;100.00;100140.47;5094747;28;20210;-73
2023/01/28 10:58:05;;;;;;;0.60;0.60;;;;;;;7.85;100.00;100129.47;5093438;28;20202;-72
2023/01/28 11:00:36;;;;;;;0.70;0.70;;;;;;;8.04;100.00;100161.81;5092167;28;20225;-71
2023/01/28 11:03:05;;;;;;;0.70;0.70;;;;;;;8.22;100.00;100173.50;5098798;28;20674;-74
2023/01/28 11:05:32;;;;;;;1.93;1.83;;;;;;;7.85;100.00;100171.66;5092257;28;20235;-74
2023/01/28 11:08:12;;;;;;;0.60;0.60;;;;;;;7.88;100.00;100170.88;5090192;28;20599;-75
2023/01/28 11:10:40;;;;;;;0.77;0.77;;;;;;;8.02;100.00;100161.78;5043264;28;20209;-77
2023/01/28 11:13:16;;;;;;;0.50;0.50;;;;;;;8.55;100.00;100141.63;5089126;28;20235;-73
2023/01/28 11:15:47;;;;;;;1.90;1.40;;;;;;;7.99;100.00;100169.44;5099660;28;20194;-75
2023/01/28 11:18:19;;;;;;;5.53;2.10;;;;;;;7.90;100.00;100171.78;5095002;28;20274;-74
2023/01/28 11:20:52;;;;;;;0.60;0.60;;;;;;;7.48;100.00;100169.78;5098592;28;20656;-72
2023/01/28 11:23:24;;;;;;;0.50;0.50;;;;;;;7.83;100.00;100167.28;5088555;28;20637;-78
2023/01/28 11:26:00;;;;;;;6.60;4.87;;;;;;;7.81;100.00;100171.53;5096152;28;20229;-72
2023/01/28 11:28:27;;;;;;;0.60;0.60;;;;;;;6.44;100.00;100161.38;5058958;28;20565;-72
2023/01/28 11:30:58;;;;;;;0.77;0.77;;;;;;;6.57;100.00;100142.91;5096045;28;20225;-73
2023/01/28 11:33:33;;;;;;;0.63;0.63;;;;;;;7.27;100.00;100143.38;5090160;28;20209;-77
2023/01/28 11:36:06;;;;;;;0.70;0.70;;;;;;;7.67;100.00;100162.56;5048473;28;20205;-71
2023/01/28 11:38:34;;;;;;;0.67;0.67;;;;;;;7.75;100.00;100145.53;5093454;28;20189;-73
2023/01/28 11:41:00;;;;;;;0.60;0.60;;;;;;;7.05;100.00;100156.44;5099907;28;20667;-72
2023/01/28 11:43:29;;;;;;;0.80;0.80;;;;;;;6.95;100.00;100159.56;5094486;28;20213;-75
2023/01/28 11:46:06;;;;;;;0.70;0.70;;;;;;;7.06;100.00;100147.88;5098849;28;20269;-73
2023/01/28 11:48:45;;;;;;;0.80;0.80;;;;;;;7.51;100.00;100140.59;5092735;28;20582;-74
2023/01/28 11:51:29;;;;;;;0.67;0.67;;;;;;;8.10;100.00;100149.94;5093930;28;20605;-77
2023/01/28 11:54:12;;;;;;;0.60;0.60;;;;;;;8.01;100.00;100147.13;5089840;28;20198;-75
2023/01/28 11:57:10;;;;;;;0.73;0.73;;;;;;;7.41;100.00;100149.78;5103790;28;20193;-77
2023/01/28 11:59:54;;;;;;;0.70;0.70;;;;;;;7.36;100.00;100141.03;5008670;28;20362;-75
2023/01/28 12:02:51;;;;;;;0.60;0.60;;;;;;;7.04;100.00;100152.09;5027780;28;20200;-78
2023/01/28 12:05:41;;;;;;;0.80;0.80;;;;;;;6.57;100.00;100153.22;5024830;28;20225;-75
2023/01/28 12:08:18;;;;;;;0.70;0.70;;;;;;;6.81;100.00;100153.13;5026295;28;20204;-73
2023/01/28 12:10:52;;;;;;;0.50;0.50;;;;;;;6.27;100.00;100136.78;5027067;28;20200;-75
2023/01/28 12:13:36;;;;;;;0.63;0.63;;;;;;;5.92;100.00;100130.47;5028054;28;20208;-77